createdAt,value
2023-05-05T00:03:45.019Z,3.05
2023-05-05T00:08:46.905Z,2.00
2023-05-05T00:13:48.879Z,2.55
2023-05-05T00:18:50.364Z,1.77
2023-05-05T00:23:52.069Z,2.45
2023-05-05T00:28:53.510Z,2.30
2023-05-05T00:33:55.056Z,2.63
2023-05-05T00:38:56.504Z,3.05
2023-05-05T00:43:57.928Z,2.38
2023-05-05T00:49:00.784Z,2.35
2023-05-05T00:54:02.320Z,2.53
2023-05-05T00:59:03.798Z,1.98
2023-05-05T01:04:05.274Z,2.13
2023-05-05T01:09:24.713Z,2.35
2023-05-05T01:14:39.856Z,2.47
2023-05-05T01:20:08.667Z,2.27
2023-05-05T01:25:44.329Z,2.15
2023-05-05T01:31:10.684Z,2.03
2023-05-05T01:36:22.761Z,2.35
2023-05-05T01:41:47.068Z,2.03
2023-05-05T01:46:51.965Z,2.00
2023-05-05T01:51:55.682Z,2.10
2023-05-05T01:56:58.623Z,2.67
2023-05-05T02:02:02.215Z,2.40
2023-05-05T02:07:05.108Z,2.17
2023-05-05T02:12:08.114Z,2.97
2023-05-05T02:17:11.376Z,2.30
2023-05-05T02:22:12.860Z,2.45
2023-05-05T02:27:17.649Z,2.00
2023-05-05T02:32:34.698Z,2.55
2023-05-05T02:37:38.326Z,2.70
2023-05-05T02:42:42.984Z,3.53
2023-05-05T02:47:46.473Z,2.70
2023-05-05T02:52:48.537Z,2.85
2023-05-05T02:58:06.142Z,2.20
2023-05-05T03:03:22.308Z,2.20
2023-05-05T03:08:52.244Z,2.53
2023-05-05T03:14:15.047Z,2.20
2023-05-05T03:19:20.060Z,2.53
2023-05-05T03:24:27.085Z,2.40
2023-05-05T03:29:36.112Z,1.98
2023-05-05T03:34:39.315Z,2.50
2023-05-05T03:39:40.941Z,2.55
2023-05-05T03:44:44.326Z,2.67
2023-05-05T03:49:46.029Z,2.45
2023-05-05T03:54:47.582Z,2.53
2023-05-05T03:59:49.216Z,2.67
2023-05-05T04:04:50.963Z,2.85
2023-05-05T04:09:52.614Z,2.55
2023-05-05T04:14:54.850Z,2.30
2023-05-05T04:19:56.493Z,2.75
2023-05-05T04:24:58.001Z,2.38
2023-05-05T04:29:59.748Z,2.47
2023-05-05T04:35:01.544Z,2.60
2023-05-05T04:40:03.401Z,3.10
2023-05-05T04:45:08.394Z,3.35
2023-05-05T04:50:10.752Z,3.20
2023-05-05T04:55:13.604Z,4.07
2023-05-05T05:00:15.325Z,3.28
2023-05-05T05:05:16.879Z,3.22
2023-05-05T05:10:18.975Z,3.70
2023-05-05T05:15:21.849Z,3.75
2023-05-05T05:20:23.402Z,3.60
2023-05-05T05:25:25.073Z,4.40
2023-05-05T05:30:27.249Z,4.65
2023-05-05T05:35:29.166Z,4.10
2023-05-05T05:40:30.766Z,4.30
2023-05-05T05:45:32.379Z,3.88
2023-05-05T05:50:34.086Z,4.10
2023-05-05T05:55:35.598Z,4.82
2023-05-05T06:00:37.221Z,4.03
2023-05-05T06:05:42.595Z,5.35
2023-05-05T06:10:44.960Z,4.63
2023-05-05T06:15:50.881Z,4.00
2023-05-05T06:20:52.903Z,4.32
2023-05-05T06:25:57.658Z,4.82
2023-05-05T06:30:59.118Z,3.40
2023-05-05T06:36:00.655Z,4.20
2023-05-05T06:41:02.172Z,4.93
2023-05-05T06:46:03.708Z,4.95
2023-05-05T06:51:05.205Z,4.32
2023-05-05T06:56:07.842Z,4.50
2023-05-05T07:01:09.646Z,5.03
2023-05-05T07:06:11.127Z,4.50
2023-05-05T07:11:12.656Z,4.43
2023-05-05T07:16:14.141Z,7.18
2023-05-05T07:21:15.612Z,6.07
2023-05-05T07:26:17.105Z,5.32
2023-05-05T07:31:18.721Z,4.80
2023-05-05T07:36:20.319Z,5.45
2023-05-05T07:41:21.744Z,5.50
2023-05-05T07:46:23.226Z,6.38
2023-05-05T07:51:24.813Z,5.07
2023-05-05T07:56:26.232Z,4.80
2023-05-05T08:01:27.966Z,4.45
2023-05-05T08:06:30.876Z,4.95
2023-05-05T08:11:32.319Z,5.43
2023-05-05T08:16:33.883Z,6.00
2023-05-05T08:21:35.451Z,4.85
2023-05-05T08:26:36.899Z,4.85
2023-05-05T08:31:38.454Z,5.43
2023-05-05T08:36:39.907Z,4.90
2023-05-05T08:41:41.478Z,6.07
2023-05-05T08:46:43.227Z,4.85
2023-05-05T08:51:46.496Z,5.53
2023-05-05T08:56:50.014Z,5.15
2023-05-05T09:01:53.030Z,5.40
2023-05-05T09:06:58.148Z,4.75
2023-05-05T09:12:00.186Z,5.20
2023-05-05T09:17:03.322Z,4.90
2023-05-05T09:22:04.837Z,5.20
2023-05-05T09:27:21.666Z,4.82
2023-05-05T09:32:23.753Z,4.43
2023-05-05T09:37:31.411Z,4.93
2023-05-05T09:42:32.847Z,4.80
2023-05-05T09:47:37.549Z,5.25
2023-05-05T09:52:39.204Z,5.20
2023-05-05T09:57:40.650Z,7.32
2023-05-05T10:02:42.294Z,5.88
2023-05-05T10:07:46.175Z,6.28
2023-05-05T10:12:49.223Z,5.75
2023-05-05T10:18:06.160Z,5.18
2023-05-05T10:23:14.183Z,4.10
2023-05-05T10:28:23.021Z,4.53
2023-05-05T10:33:33.840Z,4.28
2023-05-05T10:38:35.918Z,4.20
2023-05-05T10:43:37.633Z,4.60
2023-05-05T10:48:54.550Z,4.57
2023-05-05T10:54:05.925Z,5.13
2023-05-05T10:59:38.818Z,4.93
2023-05-05T11:04:40.801Z,4.82
2023-05-05T11:09:55.178Z,5.18
2023-05-05T11:15:27.539Z,4.70
2023-05-05T11:20:35.218Z,4.68
2023-05-05T11:25:37.201Z,4.57
2023-05-05T11:31:18.664Z,4.13
2023-05-05T11:36:37.007Z,4.25
2023-05-05T11:42:10.229Z,4.13
2023-05-05T11:47:12.244Z,4.10
2023-05-05T11:52:15.119Z,4.45
2023-05-05T11:57:17.999Z,4.13
2023-05-05T12:02:20.407Z,4.07
2023-05-05T12:07:24.596Z,4.32
2023-05-05T12:12:39.425Z,4.32
2023-05-05T12:17:42.958Z,3.73
2023-05-05T12:22:44.588Z,4.07
2023-05-05T12:27:52.571Z,3.70
2023-05-05T12:33:01.550Z,6.15
2023-05-05T12:38:03.471Z,4.70
2023-05-05T12:43:04.884Z,5.28
2023-05-05T12:48:22.476Z,3.88
2023-05-05T12:53:25.225Z,4.00
2023-05-05T12:58:26.695Z,3.90
2023-05-05T13:03:28.232Z,4.40
2023-05-05T13:08:43.002Z,3.60
2023-05-05T13:13:44.436Z,4.07
2023-05-05T13:18:49.810Z,3.88
2023-05-05T13:23:51.360Z,3.83
2023-05-05T13:28:52.868Z,3.38
2023-05-05T13:33:54.478Z,3.45
2023-05-05T13:38:55.942Z,4.97
2023-05-05T13:43:57.354Z,4.03
2023-05-05T13:48:58.781Z,3.72
2023-05-05T13:54:02.793Z,4.30
2023-05-05T13:59:04.560Z,3.33
2023-05-05T14:04:06.312Z,4.00
2023-05-05T14:09:07.893Z,3.80
2023-05-05T14:14:09.336Z,3.42
2023-05-05T14:19:10.752Z,3.05
2023-05-05T14:24:12.184Z,4.15
2023-05-05T14:29:13.620Z,3.75
2023-05-05T14:34:15.016Z,3.70
2023-05-05T14:39:16.477Z,3.95
2023-05-05T14:44:17.973Z,3.58
2023-05-05T14:49:19.504Z,4.03
2023-05-05T14:54:27.853Z,3.80
2023-05-05T14:59:30.325Z,3.88
2023-05-05T15:04:31.846Z,4.45
2023-05-05T15:09:33.254Z,3.65
2023-05-05T15:14:34.738Z,3.38
2023-05-05T15:19:36.414Z,3.58
2023-05-05T15:24:37.975Z,3.53
2023-05-05T15:29:39.379Z,3.75
2023-05-05T15:34:40.828Z,4.03
2023-05-05T15:39:42.314Z,4.05
2023-05-05T15:44:43.745Z,4.18
2023-05-05T15:49:45.177Z,3.63
2023-05-05T15:54:46.704Z,3.78
2023-05-05T15:59:51.350Z,3.50
2023-05-05T16:04:52.831Z,3.93
2023-05-05T16:09:54.271Z,3.30
2023-05-05T16:14:55.950Z,3.20
2023-05-05T16:19:57.368Z,3.10
2023-05-05T16:24:58.791Z,2.75
2023-05-05T16:30:00.228Z,2.97
2023-05-05T16:35:01.679Z,3.03
2023-05-05T16:40:03.268Z,2.42
2023-05-05T16:45:05.880Z,3.45
2023-05-05T16:50:07.680Z,3.97
2023-05-05T16:55:09.573Z,2.92
2023-05-05T17:00:11.591Z,3.53
2023-05-05T17:05:13.237Z,3.35
2023-05-05T17:10:14.847Z,3.55
2023-05-05T17:15:16.311Z,3.63
2023-05-05T17:20:17.746Z,3.55
2023-05-05T17:25:19.230Z,3.30
2023-05-05T17:30:20.949Z,3.22
2023-05-05T17:35:22.410Z,4.25
2023-05-05T17:40:24.798Z,3.10
2023-05-05T17:45:26.312Z,3.78
2023-05-05T17:50:27.856Z,3.20
2023-05-05T17:55:29.316Z,3.80
2023-05-05T18:00:30.739Z,3.83
2023-05-05T18:05:32.171Z,3.38
2023-05-05T18:10:33.635Z,4.00
2023-05-05T18:15:35.159Z,3.97
2023-05-05T18:20:36.620Z,3.45
2023-05-05T18:25:38.104Z,3.42
2023-05-05T18:30:39.584Z,4.20
2023-05-05T18:35:41.017Z,3.30
2023-05-05T18:40:42.434Z,3.30
2023-05-05T18:45:43.937Z,4.65
2023-05-05T18:50:45.371Z,3.53
2023-05-05T18:55:46.762Z,3.90
2023-05-05T19:00:48.242Z,3.25
2023-05-05T19:05:49.663Z,3.75
2023-05-05T19:10:51.114Z,3.15
2023-05-05T19:15:54.397Z,3.67
2023-05-05T19:20:55.937Z,3.55
2023-05-05T19:25:57.650Z,3.50
2023-05-05T19:30:59.425Z,2.70
2023-05-05T19:36:01.722Z,3.00
2023-05-05T19:41:03.194Z,3.45
2023-05-05T19:46:04.901Z,4.13
2023-05-05T19:51:06.448Z,3.47
2023-05-05T19:56:08.036Z,3.78
2023-05-05T20:01:09.542Z,3.85
2023-05-05T20:06:11.132Z,3.90
2023-05-05T20:11:16.268Z,4.32
2023-05-05T20:16:18.471Z,3.53
2023-05-05T20:21:19.999Z,4.55
2023-05-05T20:26:21.480Z,3.88
2023-05-05T20:31:22.998Z,3.80
2023-05-05T20:36:24.562Z,4.15
2023-05-05T20:41:26.006Z,3.78
2023-05-05T20:46:27.564Z,3.42
2023-05-05T20:51:29.020Z,3.58
2023-05-05T20:56:30.457Z,3.72
2023-05-05T21:01:31.873Z,4.07
2023-05-05T21:06:33.369Z,3.70
2023-05-05T21:11:34.792Z,3.95
2023-05-05T21:16:36.205Z,4.07
2023-05-05T21:21:37.664Z,4.22
2023-05-05T21:26:43.503Z,4.70
2023-05-05T21:36:46.387Z,4.00
2023-05-05T21:41:47.828Z,4.10
2023-05-05T21:46:49.292Z,4.00
2023-05-05T21:51:50.769Z,4.07
2023-05-05T21:56:52.687Z,4.00
2023-05-05T22:01:54.285Z,4.22
2023-05-05T22:06:55.894Z,4.72
2023-05-05T22:11:57.492Z,3.80
2023-05-05T22:16:59.074Z,3.83
2023-05-05T22:22:00.526Z,4.57
2023-05-05T22:27:01.984Z,4.35
2023-05-05T22:32:03.447Z,4.93
2023-05-05T22:37:04.923Z,4.40
2023-05-05T22:42:06.621Z,5.30
2023-05-05T22:47:08.103Z,4.20
2023-05-05T22:52:09.727Z,4.78
2023-05-05T22:57:11.144Z,4.55
2023-05-05T23:02:12.891Z,4.13
2023-05-05T23:07:14.359Z,4.40
2023-05-05T23:12:16.875Z,4.43
2023-05-05T23:17:18.376Z,4.22
2023-05-05T23:22:19.870Z,5.15
2023-05-05T23:27:21.314Z,4.40
2023-05-05T23:32:22.770Z,5.45
2023-05-05T23:37:24.211Z,4.32
2023-05-05T23:42:25.658Z,4.85
2023-05-05T23:47:27.137Z,4.68
2023-05-05T23:52:28.779Z,4.30
2023-05-05T23:57:30.235Z,5.15
